KKLS/KLS METAR and TAF weather

Enter ICAO airport designator
Station Type Date Time Source
KKLS METAR 2019/05/20 10:56 UTC NOAA

KKLS 201056Z AUTO 00000KT 10SM OVC019 12/09 A2982 RMK AO2 SLP104 T01220094


Station Type Date Time Source
KKLS Decoded METAR 2019/05/20 10:56 UTC NOAA

Kelso, Kelso-Longview Airport, WA, United States (KKLS) 46-07N 122-54W
May 20, 2019 - 06:56 AM EDT / 2019.05.20 1056 UTC
Wind: Calm:0
Visibility: 10 mile(s):0
Sky conditions: overcast
Temperature: 54.0 F (12.2 C)
Dew Point: 48.9 F (9.4 C)
Relative Humidity: 82%
Pressure (altimeter): 29.82 in. Hg (1009 hPa)
ob: KKLS 201056Z AUTO 00000KT 10SM OVC019 12/09 A2982 RMK AO2 SLP104 T01220094
cycle: 11

Station Type Date Time Source
KKLS TAF UTC NOAA

Error!

Example: see airport list